Lontetree, Wyoming
Current Conditions -  °F | °C
As of 5:55 AM on Friday 19 Dec 2014 (Local Time) from KFBR Reporting Station
Overcast Overcast  
Wind Chill: 17°   Ceiling: 3900
Heat Index: 27°   Visibility: 10mi
Dew Point: 19°   Wind: 10mph
Humidity: 73%   Direction: 240°WSW
Pressure: 30.17"   Gusts: NA
Location:  41.04°N, 110.17°W
Report Text: KFBR 191255Z AUTO 24009KT 10SM OVC039 M03/M07 A3017 RMK AO2 T10301073
Loading
Personal Weather Stations






























Interactive Weather Map New forecast layout! Learn more

10-Day Weather Forecast

Advertisements
Track Severe Weather on mobile